createdAt,value
2022-09-12T00:00:12.839Z,5.45
2022-09-12T00:02:40.157Z,6.45
2022-09-12T00:05:07.981Z,5.80
2022-09-12T00:07:36.138Z,5.95
2022-09-12T00:10:07.543Z,6.85
2022-09-12T00:12:35.529Z,6.05
2022-09-12T00:15:06.140Z,5.93
2022-09-12T00:17:35.905Z,6.00
2022-09-12T00:20:08.069Z,6.78
2022-09-12T00:22:38.915Z,5.80
2022-09-12T00:25:07.936Z,6.63
2022-09-12T00:27:35.583Z,6.05
2022-09-12T00:30:04.061Z,6.80
2022-09-12T00:32:38.670Z,6.13
2022-09-12T00:35:06.729Z,5.82
2022-09-12T00:37:35.495Z,6.88
2022-09-12T00:40:04.144Z,6.28
2022-09-12T00:42:31.991Z,6.70
2022-09-12T00:45:03.285Z,7.65
2022-09-12T00:47:33.125Z,7.90
2022-09-12T00:50:08.503Z,7.90
2022-09-12T00:52:37.575Z,7.90
2022-09-12T00:55:25.533Z,8.00
2022-09-12T00:58:14.455Z,8.73
2022-09-12T01:00:42.684Z,8.02
2022-09-12T01:03:15.307Z,8.50
2022-09-12T01:06:18.343Z,9.07
2022-09-12T01:08:45.930Z,8.50
2022-09-12T01:11:13.625Z,8.40
2022-09-12T01:13:41.188Z,8.80
2022-09-12T01:16:08.686Z,9.45
2022-09-12T01:19:00.881Z,8.93
2022-09-12T01:21:36.660Z,9.05
2022-09-12T01:24:10.213Z,8.80
2022-09-12T01:26:50.207Z,8.60
2022-09-12T01:29:27.005Z,9.45
2022-09-12T01:32:12.826Z,7.25
2022-09-12T01:34:46.671Z,8.15
2022-09-12T01:37:13.988Z,7.47
2022-09-12T01:39:54.278Z,7.30
2022-09-12T01:42:35.919Z,8.43
2022-09-12T01:45:21.105Z,7.28
2022-09-12T01:48:21.586Z,7.25
2022-09-12T01:51:19.526Z,6.85
2022-09-12T01:53:51.764Z,6.90
2022-09-12T01:56:34.611Z,6.32
2022-09-12T01:59:12.802Z,7.03
2022-09-12T02:01:46.084Z,6.70
2022-09-12T02:04:19.027Z,6.57
2022-09-12T02:07:18.823Z,7.00
2022-09-12T02:09:48.646Z,5.82
2022-09-12T02:12:18.344Z,5.53
2022-09-12T02:14:48.979Z,6.00
2022-09-12T02:17:19.359Z,5.45
2022-09-12T02:20:01.913Z,5.22
2022-09-12T02:22:35.721Z,5.22
2022-09-12T02:25:07.544Z,5.22
2022-09-12T02:27:38.408Z,5.07
2022-09-12T02:30:07.498Z,4.95
2022-09-12T02:32:45.077Z,5.10
2022-09-12T02:35:37.357Z,4.30
2022-09-12T02:38:28.360Z,4.43
2022-09-12T02:40:58.219Z,4.82
2022-09-12T02:43:25.810Z,4.43
2022-09-12T02:45:53.734Z,4.25
2022-09-12T02:48:28.749Z,4.28
2022-09-12T02:50:56.206Z,4.50
2022-09-12T02:53:35.838Z,4.43
2022-09-12T02:56:06.232Z,4.15
2022-09-12T02:58:45.050Z,4.07
2022-09-12T03:17:29.702Z,3.88
2022-09-12T03:21:32.635Z,3.80
2022-09-12T03:24:21.317Z,3.33
2022-09-12T03:35:10.473Z,3.20
2022-09-12T03:37:53.447Z,3.30
2022-09-12T03:44:03.986Z,3.30
2022-09-12T03:50:16.869Z,3.60
2022-09-12T03:53:05.722Z,3.05
2022-09-12T03:55:42.038Z,3.40
2022-09-12T03:58:09.494Z,3.22
2022-09-12T04:00:37.733Z,3.63
2022-09-12T04:03:19.199Z,3.90
2022-09-12T04:05:47.591Z,3.50
2022-09-12T04:08:17.394Z,3.33
2022-09-12T04:10:50.080Z,3.58
2022-09-12T04:13:23.952Z,4.25
2022-09-12T04:16:11.758Z,4.13
2022-09-12T04:18:52.654Z,4.35
2022-09-12T04:21:27.412Z,3.90
2022-09-12T04:24:12.089Z,4.05
2022-09-12T04:26:48.124Z,3.88
2022-09-12T04:29:18.923Z,4.32
2022-09-12T04:31:50.827Z,3.88
2022-09-12T04:34:28.661Z,4.85
2022-09-12T04:37:04.133Z,4.05
2022-09-12T04:39:34.335Z,4.03
2022-09-12T04:42:16.539Z,5.00
2022-09-12T04:44:46.425Z,4.70
2022-09-12T04:47:18.533Z,4.68
2022-09-12T04:50:13.879Z,4.38
2022-09-12T04:52:44.575Z,4.72
2022-09-12T04:55:18.023Z,4.63
2022-09-12T04:57:56.276Z,4.95
2022-09-12T05:00:52.944Z,4.95
2022-09-12T05:03:24.233Z,4.68
2022-09-12T05:08:54.113Z,4.40
2022-09-12T05:11:25.575Z,4.55
2022-09-12T05:14:24.285Z,4.43
2022-09-12T05:16:58.130Z,4.45
2022-09-12T05:19:30.468Z,5.10
2022-09-12T05:22:22.353Z,4.18
2022-09-12T05:25:04.690Z,4.65
2022-09-12T05:27:49.990Z,4.60
2022-09-12T05:30:27.267Z,4.05
2022-09-12T05:33:08.012Z,4.35
2022-09-12T05:35:59.459Z,4.13
2022-09-12T05:38:53.179Z,4.10
2022-09-12T05:41:40.442Z,4.45
2022-09-12T05:44:13.002Z,4.13
2022-09-12T05:46:54.661Z,3.75
2022-09-12T05:49:22.604Z,4.47
2022-09-12T05:51:51.012Z,4.47
2022-09-12T05:54:19.751Z,3.95
2022-09-12T05:56:47.372Z,4.47
2022-09-12T05:59:19.760Z,4.05
2022-09-12T06:01:47.408Z,3.70
2022-09-12T06:04:15.733Z,4.03
2022-09-12T06:06:46.621Z,4.05
2022-09-12T06:09:15.098Z,4.53
2022-09-12T06:11:42.801Z,3.90
2022-09-12T06:14:11.326Z,4.28
2022-09-12T06:17:00.124Z,3.83
2022-09-12T06:19:28.263Z,4.03
2022-09-12T06:21:55.632Z,4.53
2022-09-12T06:24:23.190Z,3.38
2022-09-12T06:26:52.773Z,3.90
2022-09-12T06:29:20.454Z,3.40
2022-09-12T06:31:48.020Z,3.47
2022-09-12T06:34:15.632Z,4.00
2022-09-12T06:36:47.536Z,3.60
2022-09-12T06:39:19.544Z,3.67
2022-09-12T06:41:47.354Z,3.22
2022-09-12T06:44:19.524Z,2.58
2022-09-12T06:46:47.096Z,2.70
2022-09-12T06:49:14.453Z,2.85
2022-09-12T06:51:44.948Z,3.03
2022-09-12T06:54:16.146Z,2.20
2022-09-12T06:56:44.391Z,1.90
2022-09-12T06:59:11.644Z,2.53
2022-09-12T07:01:40.374Z,2.58
2022-09-12T07:04:07.839Z,2.10
2022-09-12T07:10:29.940Z,2.25
2022-09-12T07:13:09.138Z,1.85
2022-09-12T07:15:44.616Z,2.20
2022-09-12T07:18:29.107Z,1.80
2022-09-12T07:21:07.355Z,2.03
2022-09-12T07:23:35.142Z,1.92
2022-09-12T07:26:05.468Z,2.17
2022-09-12T07:28:38.621Z,1.88
2022-09-12T07:34:55.774Z,2.30
2022-09-12T07:36:03.482Z,2.22
2022-09-12T07:44:42.056Z,2.20
2022-09-12T07:47:41.676Z,2.17
2022-09-12T08:01:53.115Z,1.67
2022-09-12T08:07:57.625Z,1.45
2022-09-12T08:18:57.752Z,1.70
2022-09-12T08:22:39.920Z,1.58
2022-09-12T08:28:55.880Z,1.65
2022-09-12T08:31:25.197Z,1.63
2022-09-12T08:34:39.985Z,1.85
2022-09-12T08:37:27.983Z,1.75
2022-09-12T08:43:30.567Z,1.90
2022-09-12T08:46:48.834Z,1.88
2022-09-12T08:56:56.963Z,1.63
2022-09-12T08:59:41.489Z,2.45
2022-09-12T09:02:56.488Z,2.00
2022-09-12T09:05:49.511Z,2.00
2022-09-12T09:32:40.401Z,1.70
2022-09-12T09:36:07.451Z,1.48
2022-09-12T09:39:25.203Z,1.50
2022-09-12T09:42:25.353Z,1.90
2022-09-12T09:45:19.726Z,1.67
2022-09-12T09:48:09.608Z,1.50
2022-09-12T09:50:38.068Z,1.65
2022-09-12T09:53:07.573Z,1.67
2022-09-12T09:55:39.504Z,1.33
2022-09-12T09:58:09.888Z,1.67
2022-09-12T10:00:41.301Z,1.52
2022-09-12T10:03:14.431Z,2.13
2022-09-12T10:05:47.050Z,1.80
2022-09-12T10:08:41.996Z,1.60
2022-09-12T10:11:17.022Z,1.48
2022-09-12T10:14:08.498Z,1.70
2022-09-12T10:16:49.899Z,1.60
2022-09-12T10:19:26.244Z,1.58
2022-09-12T10:22:04.626Z,1.77
2022-09-12T10:24:41.776Z,1.90
2022-09-12T10:27:17.047Z,1.88
2022-09-12T10:29:52.587Z,1.70
2022-09-12T10:32:43.788Z,1.63
2022-09-12T10:35:23.283Z,1.73
2022-09-12T10:37:54.536Z,1.80
2022-09-12T10:40:28.262Z,1.80
2022-09-12T10:43:02.094Z,1.60
2022-09-12T10:45:39.129Z,1.60
2022-09-12T10:48:36.238Z,1.52
2022-09-12T10:51:04.503Z,1.50
2022-09-12T10:53:46.012Z,1.60
2022-09-12T10:56:28.973Z,1.88
2022-09-12T10:59:08.307Z,1.65
2022-09-12T11:01:44.605Z,1.77
2022-09-12T11:07:34.506Z,1.52
2022-09-12T11:10:17.664Z,1.70
2022-09-12T11:13:07.265Z,1.40
2022-09-12T11:15:54.063Z,1.40
2022-09-12T11:18:52.028Z,2.90
2022-09-12T11:21:48.750Z,1.75
2022-09-12T11:24:46.985Z,1.63
2022-09-12T11:27:49.159Z,1.73
2022-09-12T11:30:17.687Z,1.90
2022-09-12T11:33:01.915Z,2.10
2022-09-12T11:35:30.657Z,1.77
2022-09-12T11:38:08.783Z,1.90
2022-09-12T11:40:47.843Z,1.60
2022-09-12T11:43:38.941Z,1.55
2022-09-12T11:46:29.516Z,1.60
2022-09-12T11:49:26.748Z,1.90
2022-09-12T11:52:24.289Z,1.80
2022-09-12T11:59:30.501Z,1.65
2022-09-12T12:03:23.175Z,1.40
2022-09-12T12:06:07.928Z,1.48
2022-09-12T12:08:46.942Z,1.50
2022-09-12T12:16:28.366Z,1.20
2022-09-12T12:20:04.729Z,1.20
2022-09-12T12:23:03.715Z,1.25
2022-09-12T12:26:06.638Z,1.52
2022-09-12T12:28:53.360Z,1.95
2022-09-12T12:32:42.895Z,2.20
2022-09-12T12:40:00.489Z,1.70
2022-09-12T12:43:01.897Z,1.60
2022-09-12T12:49:35.616Z,2.40
2022-09-12T12:52:48.419Z,2.58
2022-09-12T12:55:49.003Z,1.75
2022-09-12T13:02:27.409Z,1.30
2022-09-12T13:04:57.790Z,1.70
2022-09-12T13:07:36.232Z,1.10
2022-09-12T13:10:05.098Z,1.30
2022-09-12T13:12:35.863Z,1.75
2022-09-12T13:15:27.574Z,1.63
2022-09-12T13:18:33.374Z,2.95
2022-09-12T13:21:22.119Z,3.47
2022-09-12T13:32:35.704Z,3.80
2022-09-12T13:36:23.727Z,2.47
2022-09-12T14:21:47.249Z,11.70
2022-09-12T14:24:51.010Z,92.10
2022-09-12T14:27:49.383Z,105.00
2022-09-12T14:30:22.561Z,51.90
2022-09-12T14:33:11.344Z,7.60
2022-09-12T14:35:43.315Z,35.97
2022-09-12T14:38:16.785Z,104.20
2022-09-12T14:40:45.949Z,10.45
2022-09-12T14:43:20.946Z,18.55
2022-09-12T14:46:13.424Z,32.58
2022-09-12T14:56:18.177Z,7.68
2022-09-12T14:58:46.168Z,18.75
2022-09-12T15:33:51.596Z,7.05
2022-09-12T15:39:24.006Z,8.20
2022-09-12T15:59:18.108Z,2.38
2022-09-12T16:05:03.682Z,4.78
2022-09-12T16:07:56.906Z,2.22
2022-09-12T16:10:44.062Z,1.80
2022-09-12T16:16:45.261Z,1.60
2022-09-12T16:20:01.362Z,6.07
2022-09-12T16:22:36.549Z,2.60
2022-09-12T16:28:51.935Z,3.67
2022-09-12T16:44:46.775Z,5.32
2022-09-12T17:03:57.467Z,8.10
2022-09-12T17:10:47.882Z,6.18
2022-09-12T17:19:54.464Z,3.65
2022-09-12T17:26:02.174Z,8.20
2022-09-12T17:28:44.029Z,16.23
2022-09-12T17:31:26.584Z,17.95
2022-09-12T17:34:27.152Z,29.95
2022-09-12T17:50:54.042Z,27.77
2022-09-12T17:54:25.372Z,20.13
2022-09-12T17:57:05.671Z,23.15
2022-09-12T18:00:37.506Z,20.45
2022-09-12T18:03:14.789Z,5.47
2022-09-12T18:06:07.405Z,3.20
2022-09-12T18:08:57.816Z,2.38
2022-09-12T18:11:29.365Z,1.65
2022-09-12T18:14:30.597Z,1.75
2022-09-12T18:17:39.683Z,1.40
2022-09-12T18:20:55.654Z,1.58
2022-09-12T18:23:53.296Z,2.08
2022-09-12T18:26:44.260Z,3.90
2022-09-12T18:29:40.397Z,4.55
2022-09-12T18:32:56.517Z,2.75
2022-09-12T18:35:39.927Z,1.83
2022-09-12T18:38:14.187Z,1.85
2022-09-12T18:40:46.737Z,2.10
2022-09-12T19:17:55.474Z,7.55
2022-09-12T19:20:34.341Z,6.80
2022-09-12T19:23:54.888Z,3.30
2022-09-12T19:26:44.508Z,5.38
2022-09-12T19:29:30.859Z,8.80
2022-09-12T19:32:12.651Z,7.85
2022-09-12T19:34:44.505Z,6.35
2022-09-12T19:37:27.436Z,6.22
2022-09-12T19:40:16.040Z,7.32
2022-09-12T19:42:53.174Z,6.28
2022-09-12T19:45:26.678Z,6.95
2022-09-12T19:48:15.349Z,6.30
2022-09-12T19:50:49.673Z,5.80
2022-09-12T19:53:28.051Z,6.82
2022-09-12T19:56:17.901Z,6.55
2022-09-12T19:58:56.445Z,4.63
2022-09-12T20:01:39.400Z,4.22
2022-09-12T20:07:48.377Z,4.30
2022-09-12T20:16:23.899Z,3.00
2022-09-12T20:19:09.341Z,2.47
2022-09-12T20:22:31.755Z,2.35
2022-09-12T20:24:59.734Z,2.88
2022-09-12T20:27:27.158Z,2.50
2022-09-12T20:29:55.821Z,2.80
2022-09-12T20:36:34.919Z,2.55
2022-09-12T21:03:09.832Z,7.20
2022-09-12T21:08:16.216Z,5.57
2022-09-12T21:11:06.743Z,4.45
2022-09-12T21:13:41.218Z,3.75
2022-09-12T21:16:19.131Z,3.95
2022-09-12T21:19:35.600Z,4.50
2022-09-12T21:22:07.371Z,4.50
2022-09-12T21:24:45.274Z,5.13
2022-09-12T21:27:16.059Z,4.47
2022-09-12T21:29:46.277Z,4.80
2022-09-12T21:32:14.604Z,6.15
2022-09-12T21:34:43.518Z,8.27
2022-09-12T21:37:12.093Z,6.28
2022-09-12T21:42:38.095Z,4.20
2022-09-12T21:45:09.181Z,3.25
2022-09-12T21:47:40.071Z,3.70
2022-09-12T21:50:11.573Z,4.72
2022-09-12T21:52:42.111Z,5.45
2022-09-12T21:55:31.879Z,3.85
2022-09-12T21:58:00.676Z,3.30
2022-09-12T22:00:42.243Z,3.55
2022-09-12T22:03:15.545Z,4.05
2022-09-12T22:05:50.958Z,5.55
2022-09-12T22:08:18.582Z,7.07
2022-09-12T22:10:47.353Z,4.80
2022-09-12T22:13:30.390Z,6.30
2022-09-12T22:16:18.885Z,5.95
2022-09-12T22:21:19.124Z,6.47
2022-09-12T22:24:09.380Z,6.57
2022-09-12T22:26:44.841Z,8.93
2022-09-12T22:29:16.704Z,11.30
2022-09-12T22:31:44.354Z,17.55
2022-09-12T22:34:13.322Z,30.23
2022-09-12T22:36:46.813Z,22.38
2022-09-12T22:39:14.799Z,22.30
2022-09-12T22:41:51.777Z,19.42
2022-09-12T22:44:42.684Z,16.15
2022-09-12T22:47:16.782Z,14.10
2022-09-12T22:49:51.191Z,14.50
2022-09-12T22:52:30.709Z,13.88
2022-09-12T22:55:08.312Z,6.00
2022-09-12T22:57:39.603Z,6.18
2022-09-12T23:00:10.923Z,11.23
2022-09-12T23:02:46.613Z,12.70
2022-09-12T23:05:14.790Z,11.85
2022-09-12T23:07:47.757Z,11.15
2022-09-12T23:10:18.156Z,9.25
2022-09-12T23:12:55.836Z,5.95
2022-09-12T23:15:34.693Z,6.65
2022-09-12T23:18:05.322Z,5.82
2022-09-12T23:20:40.276Z,4.72
2022-09-12T23:23:14.954Z,5.00
2022-09-12T23:25:46.860Z,5.53
2022-09-12T23:28:18.376Z,4.47
2022-09-12T23:30:54.982Z,4.93
2022-09-12T23:33:27.677Z,3.97
2022-09-12T23:36:15.158Z,4.00
2022-09-12T23:38:46.534Z,3.65
2022-09-12T23:41:20.190Z,4.22
2022-09-12T23:43:50.958Z,3.42
2022-09-12T23:46:21.832Z,4.63
2022-09-12T23:48:50.258Z,4.53
2022-09-12T23:51:18.313Z,4.78
2022-09-12T23:53:49.298Z,4.20
2022-09-12T23:56:22.146Z,4.65
2022-09-12T23:58:53.831Z,4.13
